createdAt,value
2022-10-06T00:00:18.971Z,2.15
2022-10-06T00:03:06.728Z,2.20
2022-10-06T00:05:34.389Z,2.30
2022-10-06T00:08:03.010Z,2.20
2022-10-06T00:10:31.288Z,2.10
2022-10-06T00:12:58.900Z,2.15
2022-10-06T00:15:28.245Z,2.03
2022-10-06T00:17:56.378Z,2.17
2022-10-06T00:20:24.459Z,1.60
2022-10-06T00:22:52.318Z,2.22
2022-10-06T00:25:21.353Z,1.77
2022-10-06T00:27:50.351Z,2.58
2022-10-06T00:30:20.371Z,2.38
2022-10-06T00:32:52.308Z,1.85
2022-10-06T00:35:20.499Z,2.38
2022-10-06T00:37:48.852Z,2.28
2022-10-06T00:40:36.088Z,1.83
2022-10-06T00:43:05.921Z,2.40
2022-10-06T00:45:33.495Z,2.53
2022-10-06T00:48:04.982Z,2.00
2022-10-06T00:50:32.742Z,2.40
2022-10-06T00:53:00.507Z,2.58
2022-10-06T00:55:28.323Z,2.20
2022-10-06T00:57:56.028Z,2.10
2022-10-06T01:00:23.755Z,2.20
2022-10-06T01:03:00.207Z,2.08
2022-10-06T01:05:29.981Z,1.98
2022-10-06T01:07:57.880Z,1.83
2022-10-06T01:10:25.506Z,2.28
2022-10-06T01:13:11.686Z,1.80
2022-10-06T01:15:43.199Z,2.13
2022-10-06T01:18:13.321Z,1.70
2022-10-06T01:20:50.159Z,1.95
2022-10-06T01:23:18.134Z,2.40
2022-10-06T01:25:47.353Z,1.95
2022-10-06T01:28:15.626Z,1.92
2022-10-06T01:30:52.854Z,1.85
2022-10-06T01:33:22.795Z,2.35
2022-10-06T01:35:52.649Z,1.80
2022-10-06T01:38:21.883Z,1.95
2022-10-06T01:40:53.661Z,1.95
2022-10-06T01:43:21.514Z,1.98
2022-10-06T01:45:59.154Z,1.83
2022-10-06T01:48:27.791Z,1.70
2022-10-06T01:50:58.232Z,2.10
2022-10-06T01:53:25.960Z,2.10
2022-10-06T01:55:57.974Z,2.38
2022-10-06T01:58:26.761Z,2.28
2022-10-06T02:00:55.128Z,1.73
2022-10-06T02:03:22.802Z,2.00
2022-10-06T02:05:50.513Z,2.22
2022-10-06T02:08:18.372Z,2.25
2022-10-06T02:10:47.720Z,2.28
2022-10-06T02:13:21.375Z,2.03
2022-10-06T02:15:49.144Z,2.10
2022-10-06T02:18:16.819Z,2.53
2022-10-06T02:20:44.767Z,2.33
2022-10-06T02:23:14.003Z,2.15
2022-10-06T02:25:41.778Z,2.00
2022-10-06T02:28:09.658Z,2.05
2022-10-06T02:30:37.648Z,2.70
2022-10-06T02:33:05.906Z,2.20
2022-10-06T02:35:33.732Z,2.17
2022-10-06T02:38:01.420Z,2.42
2022-10-06T02:40:29.088Z,1.67
2022-10-06T02:42:58.552Z,1.58
2022-10-06T02:45:26.562Z,2.00
2022-10-06T02:47:54.899Z,2.00
2022-10-06T02:50:23.857Z,2.22
2022-10-06T02:52:51.443Z,1.80
2022-10-06T02:55:20.964Z,2.22
2022-10-06T02:57:49.075Z,1.98
2022-10-06T03:00:16.784Z,1.70
2022-10-06T03:02:48.954Z,1.80
2022-10-06T03:05:16.894Z,1.92
2022-10-06T03:07:44.532Z,2.20
2022-10-06T03:10:12.444Z,2.03
2022-10-06T03:12:40.264Z,2.03
2022-10-06T03:15:08.508Z,1.88
2022-10-06T03:17:36.280Z,1.90
2022-10-06T03:20:04.367Z,1.85
2022-10-06T03:22:33.244Z,1.80
2022-10-06T03:25:00.912Z,2.05
2022-10-06T03:27:28.701Z,1.75
2022-10-06T03:30:01.434Z,2.22
2022-10-06T03:32:32.173Z,1.73
2022-10-06T03:35:00.141Z,2.35
2022-10-06T03:37:29.056Z,1.90
2022-10-06T03:39:57.238Z,2.88
2022-10-06T03:42:25.644Z,2.15
2022-10-06T03:44:54.198Z,2.90
2022-10-06T03:47:22.157Z,1.70
2022-10-06T03:49:50.001Z,2.22
2022-10-06T03:52:20.195Z,1.60
2022-10-06T03:54:51.683Z,1.95
2022-10-06T03:57:19.454Z,1.33
2022-10-06T03:59:47.209Z,1.52
2022-10-06T04:02:16.333Z,2.20
2022-10-06T04:04:44.169Z,2.60
2022-10-06T04:07:12.934Z,2.70
2022-10-06T04:09:41.360Z,2.22
2022-10-06T04:12:11.147Z,2.10
2022-10-06T04:14:40.142Z,1.77
2022-10-06T04:17:09.061Z,2.00
2022-10-06T04:19:39.787Z,1.70
2022-10-06T04:22:08.280Z,1.70
2022-10-06T04:24:36.510Z,5.35
2022-10-06T04:27:23.189Z,1.80
2022-10-06T04:29:57.130Z,1.75
2022-10-06T04:32:24.839Z,2.10
2022-10-06T04:34:52.748Z,2.30
2022-10-06T04:37:21.008Z,2.33
2022-10-06T04:39:49.449Z,2.50
2022-10-06T04:42:18.611Z,1.90
2022-10-06T04:44:46.575Z,4.10
2022-10-06T04:47:14.135Z,2.70
2022-10-06T04:49:41.809Z,2.35
2022-10-06T04:52:09.759Z,2.35
2022-10-06T04:54:39.823Z,1.77
2022-10-06T04:57:09.123Z,2.08
2022-10-06T04:59:55.972Z,2.03
2022-10-06T05:02:25.184Z,2.35
2022-10-06T05:04:57.257Z,2.15
2022-10-06T05:07:26.083Z,1.70
2022-10-06T05:09:55.603Z,1.92
2022-10-06T05:12:23.552Z,1.75
2022-10-06T05:14:51.860Z,1.85
2022-10-06T05:17:19.446Z,1.95
2022-10-06T05:19:48.189Z,1.80
2022-10-06T05:22:15.824Z,1.80
2022-10-06T05:24:44.163Z,1.70
2022-10-06T05:27:12.354Z,1.70
2022-10-06T05:29:40.109Z,1.60
2022-10-06T05:32:09.389Z,1.38
2022-10-06T05:34:37.922Z,1.70
2022-10-06T05:37:06.522Z,1.70
2022-10-06T05:39:35.978Z,1.65
2022-10-06T05:42:03.859Z,1.65
2022-10-06T05:44:32.704Z,1.50
2022-10-06T05:47:03.115Z,2.05
2022-10-06T05:49:30.891Z,1.70
2022-10-06T05:54:32.467Z,2.08
2022-10-06T05:57:01.128Z,2.08
2022-10-06T05:59:30.506Z,1.65
2022-10-06T06:02:00.197Z,1.20
2022-10-06T06:04:38.867Z,1.23
2022-10-06T06:07:07.051Z,1.45
2022-10-06T06:09:34.793Z,1.30
2022-10-06T06:12:04.728Z,1.33
2022-10-06T06:15:00.635Z,1.10
2022-10-06T06:17:33.913Z,1.30
2022-10-06T06:20:05.094Z,1.10
2022-10-06T06:22:32.737Z,1.17
2022-10-06T06:25:00.375Z,1.10
2022-10-06T06:27:28.551Z,1.50
2022-10-06T06:29:57.406Z,1.75
2022-10-06T06:32:26.993Z,2.30
2022-10-06T06:34:55.363Z,2.47
2022-10-06T06:37:22.910Z,2.15
2022-10-06T06:39:50.769Z,3.13
2022-10-06T06:42:18.868Z,2.28
2022-10-06T06:44:50.392Z,1.35
2022-10-06T06:47:26.615Z,1.20
2022-10-06T06:49:55.018Z,1.10
2022-10-06T06:52:26.121Z,1.33
2022-10-06T06:54:54.326Z,0.95
2022-10-06T06:57:22.307Z,1.30
2022-10-06T06:59:52.765Z,1.70
2022-10-06T07:02:21.706Z,1.40
2022-10-06T07:04:49.506Z,1.30
2022-10-06T07:07:21.170Z,1.60
2022-10-06T07:09:49.064Z,1.98
2022-10-06T07:12:18.674Z,1.60
2022-10-06T07:15:25.636Z,1.77
2022-10-06T07:18:16.334Z,1.80
2022-10-06T07:21:02.736Z,1.80
2022-10-06T07:23:48.846Z,1.50
2022-10-06T07:26:20.309Z,1.70
2022-10-06T07:28:49.535Z,1.70
2022-10-06T07:31:19.184Z,1.17
2022-10-06T07:33:48.049Z,1.30
2022-10-06T07:36:16.333Z,1.90
2022-10-06T07:38:44.446Z,2.67
2022-10-06T07:41:19.425Z,1.77
2022-10-06T07:43:54.875Z,1.52
2022-10-06T07:46:23.775Z,1.58
2022-10-06T07:49:00.237Z,2.35
2022-10-06T07:51:28.350Z,1.50
2022-10-06T07:53:58.323Z,1.70
2022-10-06T07:56:46.266Z,1.48
2022-10-06T07:59:15.106Z,1.80
2022-10-06T08:01:44.270Z,1.40
2022-10-06T08:04:12.479Z,1.50
2022-10-06T08:06:41.950Z,1.60
2022-10-06T08:09:09.818Z,1.60
2022-10-06T08:11:37.381Z,1.98
2022-10-06T08:14:05.279Z,2.10
2022-10-06T08:16:32.958Z,2.00
2022-10-06T08:19:00.672Z,1.50
2022-10-06T08:21:30.188Z,2.00
2022-10-06T08:23:58.829Z,1.88
2022-10-06T08:26:27.084Z,1.73
2022-10-06T08:29:00.389Z,1.73
2022-10-06T08:31:28.280Z,1.80
2022-10-06T08:33:57.150Z,1.48
2022-10-06T08:36:30.873Z,1.77
2022-10-06T08:39:00.484Z,1.85
2022-10-06T08:41:28.456Z,1.60
2022-10-06T08:44:18.465Z,2.10
2022-10-06T08:47:00.574Z,2.28
2022-10-06T08:49:33.943Z,2.15
2022-10-06T08:52:17.752Z,2.60
2022-10-06T08:54:51.587Z,2.25
2022-10-06T08:57:34.410Z,2.28
2022-10-06T09:00:03.425Z,2.10
2022-10-06T09:02:33.177Z,2.45
2022-10-06T09:05:03.582Z,2.35
2022-10-06T09:07:48.399Z,2.60
2022-10-06T09:10:35.613Z,2.63
2022-10-06T09:13:07.450Z,2.20
2022-10-06T09:15:55.040Z,2.60
2022-10-06T09:19:03.768Z,2.38
2022-10-06T09:21:35.045Z,2.30
2022-10-06T09:24:06.653Z,2.97
2022-10-06T09:26:34.789Z,2.80
2022-10-06T09:29:03.551Z,3.38
2022-10-06T09:31:32.875Z,2.80
2022-10-06T09:34:05.903Z,3.25
2022-10-06T09:36:33.730Z,3.00
2022-10-06T09:39:01.358Z,3.50
2022-10-06T09:41:44.126Z,3.08
2022-10-06T09:44:24.768Z,2.83
2022-10-06T09:46:52.577Z,2.55
2022-10-06T09:49:21.896Z,2.70
2022-10-06T09:51:58.698Z,2.45
2022-10-06T09:54:28.646Z,2.78
2022-10-06T09:56:58.216Z,2.65
2022-10-06T09:59:26.081Z,2.83
2022-10-06T10:01:55.369Z,2.53
2022-10-06T10:04:26.677Z,3.65
2022-10-06T10:06:54.550Z,3.00
2022-10-06T10:09:26.402Z,2.67
2022-10-06T10:12:20.151Z,2.35
2022-10-06T10:14:48.202Z,2.50
2022-10-06T10:17:33.761Z,2.50
2022-10-06T10:20:02.819Z,2.17
2022-10-06T10:22:42.481Z,2.22
2022-10-06T10:25:29.232Z,2.00
2022-10-06T10:28:00.068Z,2.70
2022-10-06T10:30:28.853Z,2.55
2022-10-06T10:33:11.329Z,2.53
2022-10-06T10:35:41.790Z,2.30
2022-10-06T10:38:14.758Z,2.45
2022-10-06T10:40:51.516Z,1.80
2022-10-06T10:43:22.748Z,1.98
2022-10-06T10:45:54.395Z,2.30
2022-10-06T10:48:45.409Z,2.20
2022-10-06T10:51:16.062Z,2.42
2022-10-06T10:53:51.506Z,2.53
2022-10-06T10:56:21.670Z,3.70
2022-10-06T10:58:53.139Z,2.97
2022-10-06T11:01:34.545Z,2.85
2022-10-06T11:04:02.345Z,1.98
2022-10-06T11:06:46.514Z,1.67
2022-10-06T11:09:19.170Z,1.70
2022-10-06T11:12:07.934Z,1.70
2022-10-06T11:14:49.117Z,1.33
2022-10-06T11:17:23.360Z,2.15
2022-10-06T11:19:56.834Z,1.13
2022-10-06T11:22:32.624Z,1.38
2022-10-06T11:27:52.215Z,1.50
2022-10-06T11:30:20.822Z,2.83
2022-10-06T11:33:09.667Z,1.70
2022-10-06T11:35:42.284Z,1.52
2022-10-06T11:38:27.919Z,1.40
2022-10-06T11:41:23.241Z,2.08
2022-10-06T11:43:54.382Z,2.53
2022-10-06T11:46:31.207Z,2.25
2022-10-06T11:49:19.297Z,1.70
2022-10-06T11:51:46.815Z,1.50
2022-10-06T11:54:36.851Z,1.38
2022-10-06T11:57:04.538Z,1.70
2022-10-06T11:59:32.403Z,1.23
2022-10-06T12:02:00.877Z,2.40
2022-10-06T12:04:29.182Z,1.63
2022-10-06T12:06:57.862Z,1.90
2022-10-06T12:09:32.584Z,2.00
2022-10-06T12:12:22.550Z,1.73
2022-10-06T12:17:47.182Z,1.30
2022-10-06T12:20:21.939Z,1.85
2022-10-06T12:22:56.642Z,1.75
2022-10-06T12:25:35.414Z,1.67
2022-10-06T12:28:03.180Z,1.45
2022-10-06T12:30:43.761Z,1.70
2022-10-06T12:33:18.520Z,1.80
2022-10-06T12:35:47.567Z,1.40
2022-10-06T12:38:34.448Z,1.50
2022-10-06T12:41:02.367Z,1.50
2022-10-06T12:46:36.932Z,1.75
2022-10-06T12:49:07.875Z,1.15
2022-10-06T12:51:38.937Z,1.17
2022-10-06T12:54:10.147Z,1.17
2022-10-06T12:56:41.582Z,1.42
2022-10-06T12:59:24.900Z,1.48
2022-10-06T13:01:54.246Z,1.50
2022-10-06T13:04:34.609Z,1.45
2022-10-06T13:07:08.514Z,1.20
2022-10-06T13:09:37.513Z,1.33
2022-10-06T13:12:24.698Z,1.55
2022-10-06T13:15:11.385Z,1.60
2022-10-06T13:17:57.702Z,1.75
2022-10-06T13:21:01.114Z,1.88
2022-10-06T13:23:31.322Z,1.30
2022-10-06T13:25:59.162Z,2.40
2022-10-06T13:28:31.533Z,2.00
2022-10-06T13:30:59.468Z,1.60
2022-10-06T13:33:29.770Z,1.45
2022-10-06T13:38:26.608Z,1.77
2022-10-06T13:41:12.494Z,1.92
2022-10-06T13:43:43.110Z,1.85
2022-10-06T13:46:11.978Z,2.70
2022-10-06T13:48:44.728Z,1.90
2022-10-06T13:51:17.874Z,2.65
2022-10-06T13:53:47.691Z,3.13
2022-10-06T13:56:34.272Z,2.78
2022-10-06T13:59:16.142Z,2.10
2022-10-06T14:01:43.936Z,2.03
2022-10-06T14:04:13.124Z,2.63
2022-10-06T14:06:54.532Z,2.72
2022-10-06T14:09:26.726Z,2.25
2022-10-06T14:12:01.601Z,2.40
2022-10-06T14:14:29.860Z,2.17
2022-10-06T14:16:58.139Z,3.85
2022-10-06T14:19:34.129Z,2.50
2022-10-06T14:22:02.560Z,2.22
2022-10-06T14:24:34.021Z,2.05
2022-10-06T14:27:02.609Z,2.40
2022-10-06T14:29:31.728Z,2.22
2022-10-06T14:32:09.803Z,2.17
2022-10-06T14:34:37.725Z,1.92
2022-10-06T14:37:05.562Z,2.70
2022-10-06T14:39:33.485Z,2.47
2022-10-06T14:42:01.306Z,3.13
2022-10-06T14:44:28.981Z,2.55
2022-10-06T14:46:57.847Z,2.88
2022-10-06T14:49:26.208Z,3.38
2022-10-06T14:51:56.315Z,3.35
2022-10-06T14:54:24.339Z,2.80
2022-10-06T14:56:55.055Z,2.53
2022-10-06T14:59:22.850Z,2.78
2022-10-06T15:01:50.747Z,2.75
2022-10-06T15:04:20.031Z,3.90
2022-10-06T15:07:07.304Z,3.60
2022-10-06T15:09:35.784Z,2.95
2022-10-06T15:12:03.921Z,3.38
2022-10-06T15:14:33.569Z,3.05
2022-10-06T15:17:01.092Z,3.30
2022-10-06T15:19:28.826Z,3.30
2022-10-06T15:21:56.984Z,3.28
2022-10-06T15:24:26.020Z,3.30
2022-10-06T15:27:12.419Z,3.10
2022-10-06T15:29:40.241Z,4.00
2022-10-06T15:32:08.276Z,4.72
2022-10-06T15:34:37.719Z,5.95
2022-10-06T15:37:06.820Z,6.00
2022-10-06T15:39:37.873Z,6.72
2022-10-06T15:42:06.160Z,7.90
2022-10-06T15:44:34.747Z,8.73
2022-10-06T15:47:04.571Z,8.15
2022-10-06T15:49:38.146Z,5.90
2022-10-06T15:52:06.177Z,6.18
2022-10-06T15:54:38.582Z,6.70
2022-10-06T15:57:08.442Z,8.48
2022-10-06T15:59:36.753Z,6.45
2022-10-06T16:02:07.586Z,5.63
2022-10-06T16:04:39.730Z,5.45
2022-10-06T16:07:11.315Z,5.30
2022-10-06T16:12:12.004Z,4.90
2022-10-06T16:14:39.819Z,8.00
2022-10-06T16:17:07.767Z,7.70
2022-10-06T16:19:40.041Z,6.82
2022-10-06T16:22:11.661Z,6.53
2022-10-06T16:24:39.455Z,5.53
2022-10-06T16:27:07.155Z,7.93
2022-10-06T16:29:35.011Z,6.25
2022-10-06T16:32:02.866Z,5.43
2022-10-06T16:34:31.477Z,4.88
2022-10-06T16:36:59.354Z,6.18
2022-10-06T16:39:27.088Z,5.88
2022-10-06T16:41:54.887Z,5.50
2022-10-06T16:44:22.704Z,6.28
2022-10-06T16:46:50.398Z,5.55
2022-10-06T16:49:18.108Z,5.10
2022-10-06T16:51:46.839Z,5.60
2022-10-06T16:54:15.250Z,5.30
2022-10-06T16:56:44.132Z,5.65
2022-10-06T16:59:18.958Z,6.22
2022-10-06T17:01:47.778Z,5.72
2022-10-06T17:04:18.424Z,6.97
2022-10-06T17:06:47.308Z,6.57
2022-10-06T17:09:16.711Z,6.45
2022-10-06T17:11:48.979Z,5.93
2022-10-06T17:14:17.611Z,6.38
2022-10-06T17:16:47.168Z,6.85
2022-10-06T17:19:16.468Z,7.25
2022-10-06T17:21:47.408Z,6.75
2022-10-06T17:24:20.323Z,7.90
2022-10-06T17:26:49.684Z,6.28
2022-10-06T17:29:19.434Z,7.13
2022-10-06T17:31:48.362Z,6.75
2022-10-06T17:34:20.851Z,6.13
2022-10-06T17:36:51.029Z,6.03
2022-10-06T17:39:22.920Z,5.43
2022-10-06T17:44:22.745Z,6.15
2022-10-06T17:46:51.942Z,5.97
2022-10-06T17:49:20.827Z,5.07
2022-10-06T17:51:50.502Z,4.57
2022-10-06T17:54:20.157Z,5.35
2022-10-06T17:56:48.962Z,5.50
2022-10-06T17:59:18.060Z,4.50
2022-10-06T18:01:45.864Z,5.60
2022-10-06T18:04:17.595Z,6.32
2022-10-06T18:06:46.168Z,5.65
2022-10-06T18:09:14.722Z,5.32
2022-10-06T18:11:44.264Z,6.60
2022-10-06T18:14:12.369Z,5.70
2022-10-06T18:16:40.175Z,5.60
2022-10-06T18:19:09.070Z,5.20
2022-10-06T18:21:38.809Z,5.00
2022-10-06T18:24:17.139Z,5.38
2022-10-06T18:26:45.316Z,6.03
2022-10-06T18:29:13.725Z,5.85
2022-10-06T18:31:41.775Z,5.90
2022-10-06T18:36:09.457Z,7.15
2022-10-06T18:36:59.085Z,6.90
2022-10-06T18:39:31.072Z,6.03
2022-10-06T18:42:02.456Z,9.20
2022-10-06T18:47:35.300Z,8.75
2022-10-06T18:50:03.072Z,8.98
2022-10-06T18:52:30.726Z,7.80
2022-10-06T18:54:58.412Z,8.55
2022-10-06T18:57:27.903Z,7.20
2022-10-06T18:59:55.675Z,5.93
2022-10-06T19:02:23.557Z,6.22
2022-10-06T19:04:52.050Z,6.03
2022-10-06T19:07:19.686Z,6.60
2022-10-06T19:09:47.685Z,5.78
2022-10-06T19:12:15.866Z,6.05
2022-10-06T19:14:47.672Z,6.30
2022-10-06T19:17:16.209Z,6.10
2022-10-06T19:19:51.496Z,5.50
2022-10-06T19:22:24.491Z,5.38
2022-10-06T19:24:52.676Z,5.18
2022-10-06T19:27:24.374Z,4.95
2022-10-06T19:32:23.937Z,5.75
2022-10-06T19:34:52.418Z,7.13
2022-10-06T19:37:20.255Z,6.00
2022-10-06T19:39:50.226Z,5.60
2022-10-06T19:42:37.510Z,5.60
2022-10-06T19:45:06.499Z,5.63
2022-10-06T19:47:34.114Z,5.80
2022-10-06T19:50:08.722Z,6.18
2022-10-06T19:52:38.524Z,5.80
2022-10-06T19:55:06.290Z,6.25
2022-10-06T19:57:33.894Z,8.60
2022-10-06T20:00:01.782Z,6.18
2022-10-06T20:02:29.434Z,6.07
2022-10-06T20:04:57.580Z,5.72
2022-10-06T20:07:27.786Z,6.28
2022-10-06T20:09:56.114Z,6.10
2022-10-06T20:12:25.517Z,5.00
2022-10-06T20:14:54.002Z,5.50
2022-10-06T20:17:22.209Z,6.07
2022-10-06T20:19:54.019Z,5.65
2022-10-06T20:22:25.390Z,5.53
2022-10-06T20:24:53.351Z,5.55
2022-10-06T20:27:20.899Z,5.88
2022-10-06T20:29:48.905Z,5.30
2022-10-06T20:32:16.476Z,5.15
2022-10-06T20:34:44.643Z,4.53
2022-10-06T20:37:12.478Z,5.00
2022-10-06T20:39:59.282Z,4.57
2022-10-06T20:42:27.988Z,4.10
2022-10-06T20:44:55.771Z,4.70
2022-10-06T20:47:23.593Z,4.95
2022-10-06T20:49:55.076Z,5.40
2022-10-06T20:54:52.038Z,5.50
2022-10-06T20:57:19.935Z,6.72
2022-10-06T20:59:47.627Z,6.30
2022-10-06T21:02:15.409Z,6.95
2022-10-06T21:04:45.829Z,5.30
2022-10-06T21:07:13.491Z,5.32
2022-10-06T21:09:41.342Z,5.20
2022-10-06T21:12:09.242Z,5.80
2022-10-06T21:14:37.659Z,6.20
2022-10-06T21:17:06.700Z,5.55
2022-10-06T21:19:38.018Z,5.75
2022-10-06T21:22:05.715Z,6.20
2022-10-06T21:24:33.689Z,6.03
2022-10-06T21:27:01.262Z,5.47
2022-10-06T21:29:28.857Z,5.57
2022-10-06T21:31:56.704Z,5.85
2022-10-06T21:34:24.512Z,6.00
2022-10-06T21:36:52.124Z,5.40
2022-10-06T21:39:20.020Z,5.25
2022-10-06T21:41:47.600Z,6.28
2022-10-06T21:44:16.241Z,5.82
2022-10-06T21:46:47.519Z,4.78
2022-10-06T21:49:16.569Z,9.07
2022-10-06T21:51:47.907Z,6.10
2022-10-06T21:54:15.936Z,6.20
2022-10-06T21:56:43.795Z,5.18
2022-10-06T21:59:11.738Z,4.90
2022-10-06T22:01:41.052Z,5.72
2022-10-06T22:04:09.032Z,5.05
2022-10-06T22:06:37.546Z,5.47
2022-10-06T22:09:07.373Z,4.97
2022-10-06T22:11:36.549Z,5.28
2022-10-06T22:14:05.101Z,5.85
2022-10-06T22:16:34.345Z,5.75
2022-10-06T22:19:03.016Z,6.07
2022-10-06T22:21:33.653Z,5.97
2022-10-06T22:24:06.198Z,5.25
2022-10-06T22:26:34.786Z,6.43
2022-10-06T22:29:03.967Z,5.40
2022-10-06T22:31:33.567Z,5.07
2022-10-06T22:34:07.428Z,4.88
2022-10-06T22:36:35.567Z,4.53
2022-10-06T22:39:03.957Z,4.63
2022-10-06T22:41:33.507Z,4.80
2022-10-06T22:44:01.516Z,4.88
2022-10-06T22:46:36.050Z,6.00
2022-10-06T22:49:05.000Z,7.43
2022-10-06T22:51:33.441Z,6.00
2022-10-06T22:54:01.367Z,5.78
2022-10-06T22:56:30.263Z,5.70
2022-10-06T22:59:01.028Z,6.00
2022-10-06T23:01:29.706Z,5.90
2022-10-06T23:03:58.616Z,5.88
2022-10-06T23:06:26.433Z,5.55
2022-10-06T23:08:53.999Z,5.13
2022-10-06T23:11:22.551Z,6.07
2022-10-06T23:13:50.869Z,5.53
2022-10-06T23:16:18.969Z,5.00
2022-10-06T23:18:46.946Z,6.05
2022-10-06T23:21:27.325Z,5.03
2022-10-06T23:23:56.791Z,5.18
2022-10-06T23:26:24.727Z,5.63
2022-10-06T23:28:53.844Z,6.15
2022-10-06T23:31:22.006Z,5.38
2022-10-06T23:33:49.604Z,5.30
2022-10-06T23:36:17.930Z,5.30
2022-10-06T23:38:46.132Z,5.13
2022-10-06T23:41:14.128Z,5.50
2022-10-06T23:43:41.754Z,4.80
2022-10-06T23:46:09.787Z,5.32
2022-10-06T23:48:37.523Z,5.60
2022-10-06T23:51:06.784Z,5.60
2022-10-06T23:53:35.397Z,5.32
2022-10-06T23:56:03.182Z,5.60
2022-10-06T23:58:30.989Z,5.38
